Observations for OLBIA COSTA SMERALD, Italy (LIEO)

LIEO 160820Z VRB01KT 9999 SCT025 14/14 Q1020
LIEO 160750Z 14003KT 110V230 9999 SCT025 13/13 Q1020
LIEO 160720Z VRB01KT 9999 SCT025 12/12 Q1020
LIEO 160650Z VRB02KT 9999 SCT025 11/11 Q1020
LIEO 160620Z VRB01KT 9999 SCT030 11/11 Q1020
LIEO 160550Z 10003KT 090V200 9999 SCT030 12/12 Q1020
LIEO 160520Z 23003KT 120V260 9999 FEW030 13/13 Q1020
LIEO 160450Z VRB02KT CAVOK 12/12 Q1020  
LIEO 160420Z 15001KT 8000 NSC 12/12 Q1020   
LIEO 160350Z 15002KT 8000 NSC 12/12 Q1020   
LIEO 160320Z VRB01KT 8000 NSC 11/11 Q1019   
LIEO 160250Z 16001KT 8000 NSC 11/11 Q1020   
LIEO 160220Z VRB01KT 7000 NSC 11/11 Q1020   
LIEO 160150Z VRB02KT 7000 NSC 11/11 Q1020   
LIEO 160120Z VRB01KT 7000 NSC 10/10 Q1020   
LIEO 160050Z VRB01KT 7000 NSC 10/10 Q1020   
LIEO 160020Z 14002KT 6000 NSC 10/10 Q1020   
LIEO 152350Z 19001KT 6000 NSC 10/10 Q1020   
LIEO 152320Z VRB01KT 6000 NSC 10/10 Q1020   
LIEO 152250Z 00000KT 6000 NSC 10/10 Q1020   
LIEO 152220Z VRB01KT 6000 NSC 11/11 Q1020   
LIEO 152150Z VRB01KT 3000 BR NSC 10/10 Q1020
LIEO 152120Z VRB01KT 3000 BR NSC 11/11 Q1020
LIEO 152050Z VRB01KT 3000 BR NSC 11/11 Q1020
LIEO 152020Z VRB01KT 3000 BR NSC 12/12 Q1020
LIEO 151950Z 21003KT 6000 0400 BCFG NSC 11/11 Q1020 
LIEO 151920Z VRB01KT 8000 NSC 13/13 Q1020   
LIEO 151850Z VRB02KT 8000 NSC 14/14 Q1020   
LIEO 151820Z 26002KT 8000 NSC 14/14 Q1020   
LIEO 151750Z 24002KT CAVOK 15/14 Q1020  
LIEO 151720Z VRB01KT 9999 FEW020 15/15 Q1020
LIEO 151650Z VRB01KT 9999 FEW025 16/15 Q1020
LIEO 151620Z VRB01KT 9999 FEW025 17/16 Q1020
LIEO 151550Z VRB01KT 9999 FEW030 17/16 Q1020
LIEO 151520Z 07002KT 9999 FEW030 18/16 Q1020
LIEO 151450Z 06003KT 9999 FEW030 18/16 Q1021
LIEO 151420Z 06004KT 9999 FEW030 18/16 Q1021
LIEO 151350Z 05006KT 9999 FEW030 18/16 Q1021
LIEO 151320Z 05005KT 9999 SCT030 19/16 Q1021
LIEO 151250Z 08004KT 050V110 9999 SCT030 19/15 Q1021
LIEO 151220Z 05003KT 010V090 9999 SCT030 19/16 Q1022
LIEO 151150Z 04003KT 010V080 9999 SCT030 19/16 Q1022
LIEO 151120Z VRB02KT 9999 SCT030 19/16 Q1022
LIEO 151050Z VRB01KT 9999 SCT030 18/16 Q1023
LIEO 151020Z VRB02KT 9999 SCT030 18/15 Q1023
LIEO 150950Z VRB01KT 9999 SCT045 17/16 Q1023
LIEO 150920Z VRB01KT 9999 SCT030 16/15 Q1023
LIEO 150850Z VRB02KT 9999 SCT030 15/15 Q1023
LIEO 150820Z VRB01KT 9999 SCT030 14/14 Q1023
LIEO 150750Z VRB01KT 8000 SCT020 13/13 Q1023